Time;durP1;ratioP1;P1;durP2;ratioP2;P2;SDS_P1;SDS_P2;PMS_P1;PMS_P2;Temp;Humidity;BMP_temperature;BMP_pressure;BME280_temperature;BME280_humidity;BME280_pressure;Samples;Min_cycle;Max_cycle;Signal;HPM_P1;HPM_P2
2023/08/02 00:00:35;;;;;;;2.67;2.23;;;;;;;17.88;49.03;98734.94;10364982;28;20237;-40
2023/08/02 00:05:37;;;;;;;2.53;2.20;;;;;;;17.75;49.43;98731.81;10335010;22;20226;-37
2023/08/02 00:10:39;;;;;;;4.37;2.20;;;;;;;18.26;49.08;98667.22;10308195;28;20292;-37
2023/08/02 00:15:41;;;;;;;2.20;2.00;;;;;;;17.78;49.88;98686.16;10316315;28;20295;-37
2023/08/02 00:20:44;;;;;;;4.40;2.20;;;;;;;17.83;49.56;98685.34;10312282;28;20984;-37
2023/08/02 00:25:46;;;;;;;2.27;2.07;;;;;;;17.24;50.47;98722.16;10314608;28;20275;-36
2023/08/02 00:30:48;;;;;;;2.40;2.20;;;;;;;17.52;50.95;98622.88;10313562;28;23281;-37
2023/08/02 00:35:50;;;;;;;3.37;2.20;;;;;;;17.10;51.50;98650.63;10314397;28;20233;-37
2023/08/02 00:40:51;;;;;;;2.53;1.80;;;;;;;17.27;51.09;98645.91;10311072;28;20234;-36
2023/08/02 00:45:54;;;;;;;2.73;2.17;;;;;;;17.18;51.56;98647.47;10312730;28;20604;-37
2023/08/02 00:50:56;;;;;;;3.23;2.10;;;;;;;16.44;52.85;98732.47;10310544;28;20234;-36
2023/08/02 00:55:58;;;;;;;2.63;2.00;;;;;;;17.17;51.96;98611.53;10297937;28;20234;-36
2023/08/02 01:01:18;;;;;;;3.33;2.20;;;;;;;16.96;52.28;98661.03;10311653;28;20230;-36
2023/08/02 01:06:26;;;;;;;4.27;2.20;;;;;;;17.15;51.88;98646.06;10293291;28;20373;-36
2023/08/02 01:11:54;;;;;;;5.57;2.30;;;;;;;18.31;49.73;98610.41;10312230;28;20369;-37
2023/08/02 01:16:57;;;;;;;2.20;2.00;;;;;;;17.33;51.82;98663.00;10309501;28;20233;-36
2023/08/02 01:21:59;;;;;;;3.73;2.23;;;;;;;17.54;51.31;98685.63;10311332;28;20238;-36
2023/08/02 01:27:16;;;;;;;2.93;1.93;;;;;;;17.02;52.11;98707.84;10307388;28;20233;-37
2023/08/02 01:32:21;;;;;;;4.47;2.20;;;;;;;17.65;50.94;98673.06;10309413;28;20237;-36
2023/08/02 01:37:23;;;;;;;2.23;1.90;;;;;;;17.46;50.74;98681.53;10307393;28;20837;-36
2023/08/02 01:42:25;;;;;;;3.13;1.83;;;;;;;17.74;50.32;98679.59;10309730;28;20249;-37
2023/08/02 01:47:26;;;;;;;3.20;1.90;;;;;;;17.55;50.64;98706.22;10305732;28;20265;-36
2023/08/02 01:52:28;;;;;;;4.47;2.30;;;;;;;18.18;49.69;98678.56;10309630;28;20331;-36
2023/08/02 01:57:30;;;;;;;3.07;2.23;;;;;;;18.13;50.53;98608.94;10310808;28;20214;-37
2023/08/02 02:02:32;;;;;;;2.27;1.87;;;;;;;17.77;50.57;98676.38;10307479;28;20254;-37
2023/08/02 02:07:34;;;;;;;2.50;2.10;;;;;;;18.58;48.87;98631.09;10307642;28;20237;-37
2023/08/02 02:12:36;;;;;;;2.67;2.47;;;;;;;17.91;50.18;98668.63;10307377;28;20304;-37
2023/08/02 02:17:39;;;;;;;2.50;2.20;;;;;;;18.36;49.22;98639.41;10305157;28;20242;-37
2023/08/02 02:22:41;;;;;;;1.97;1.87;;;;;;;18.05;49.94;98622.97;10311538;28;20284;-37
2023/08/02 02:27:43;;;;;;;2.20;1.83;;;;;;;17.84;50.13;98644.50;10306278;28;20309;-37
2023/08/02 02:32:45;;;;;;;2.57;2.10;;;;;;;18.14;50.12;98615.19;10308449;28;20245;-37
2023/08/02 02:37:47;;;;;;;3.50;2.10;;;;;;;17.71;50.50;98634.97;10308070;28;20723;-37
2023/08/02 02:42:49;;;;;;;2.07;1.97;;;;;;;17.20;51.79;98645.31;10309576;28;20238;-37
2023/08/02 02:47:50;;;;;;;3.20;2.23;;;;;;;17.11;51.82;98642.25;10305129;28;20241;-37
2023/08/02 02:52:52;;;;;;;2.53;1.97;;;;;;;17.45;51.54;98601.47;10302781;28;21044;-37
2023/08/02 02:57:54;;;;;;;3.37;2.03;;;;;;;18.20;50.90;98522.91;10308208;28;20765;-37
2023/08/02 03:02:56;;;;;;;4.53;2.23;;;;;;;18.07;51.05;98518.78;10305416;28;20237;-37
2023/08/02 03:07:58;;;;;;;5.70;2.33;;;;;;;17.09;52.63;98601.16;10292483;28;20230;-37
2023/08/02 03:13:00;;;;;;;2.73;2.03;;;;;;;17.50;52.42;98542.00;10307947;28;20229;-36
2023/08/02 03:18:02;;;;;;;2.50;2.30;;;;;;;16.62;53.52;98621.47;10305531;28;20233;-36
2023/08/02 03:23:04;;;;;;;3.27;2.10;;;;;;;17.55;52.25;98522.28;10309380;28;20242;-37
2023/08/02 03:28:06;;;;;;;3.27;2.30;;;;;;;16.56;53.91;98594.66;10300943;28;20242;-37
2023/08/02 03:33:08;;;;;;;4.87;2.30;;;;;;;17.66;52.61;98506.97;10308699;28;20234;-37
2023/08/02 03:38:10;;;;;;;3.37;2.30;;;;;;;17.64;52.94;98496.41;10309783;28;20241;-37
2023/08/02 03:43:12;;;;;;;3.17;2.17;;;;;;;16.81;55.16;98519.28;10306024;28;20801;-37
2023/08/02 03:48:14;;;;;;;2.57;2.33;;;;;;;16.88;54.90;98553.38;10297783;28;20256;-37
2023/08/02 03:53:15;;;;;;;2.30;2.10;;;;;;;17.24;55.54;98443.72;10313447;28;20315;-37
2023/08/02 03:58:17;;;;;;;3.47;2.43;;;;;;;17.03;55.80;98450.06;10312628;28;20368;-37
2023/08/02 04:03:19;;;;;;;2.50;2.30;;;;;;;16.46;56.95;98498.16;10316306;28;20269;-36
2023/08/02 04:08:20;;;;;;;3.47;2.30;;;;;;;16.64;56.86;98442.97;10313598;28;20307;-37
2023/08/02 04:13:22;;;;;;;3.07;2.17;;;;;;;16.53;57.04;98490.66;10314608;28;20241;-37
2023/08/02 04:18:24;;;;;;;3.17;2.40;;;;;;;16.98;56.71;98413.81;10315799;28;20244;-37
2023/08/02 04:23:26;;;;;;;4.37;2.40;;;;;;;15.75;59.46;98485.44;10311266;28;20234;-36
2023/08/02 04:28:29;;;;;;;3.17;2.60;;;;;;;16.97;57.15;98398.69;10313331;28;20603;-37
2023/08/02 04:33:30;;;;;;;3.87;2.43;;;;;;;16.59;58.07;98435.63;10316784;28;22558;-37
2023/08/02 04:38:32;;;;;;;3.10;2.80;;;;;;;16.23;59.36;98423.69;10314748;28;20241;-37
2023/08/02 04:43:34;;;;;;;3.00;2.70;;;;;;;16.06;59.51;98437.25;10299504;28;20288;-37
2023/08/02 04:48:36;;;;;;;3.10;2.33;;;;;;;16.58;58.29;98417.81;10313486;28;20599;-37
2023/08/02 04:53:38;;;;;;;3.63;3.03;;;;;;;16.15;59.44;98468.13;10298291;28;20730;-37
2023/08/02 04:58:40;;;;;;;3.47;2.60;;;;;;;15.90;60.76;98425.47;10308267;28;20323;-37
2023/08/02 05:03:43;;;;;;;4.30;2.70;;;;;;;15.90;60.98;98432.78;10314837;28;20241;-37
2023/08/02 05:08:45;;;;;;;3.63;2.90;;;;;;;16.23;60.61;98412.88;10312955;28;20245;-37
2023/08/02 05:13:47;;;;;;;3.13;2.70;;;;;;;15.94;61.25;98458.16;10314216;28;20234;-37
2023/08/02 05:18:49;;;;;;;2.90;2.30;;;;;;;16.80;59.90;98362.84;10312307;28;20711;-37
2023/08/02 05:23:50;;;;;;;3.00;2.70;;;;;;;16.46;60.10;98419.03;10315200;28;20746;-37
2023/08/02 05:28:55;;;;;;;3.07;2.77;;;;;;;16.30;60.48;98404.59;10311834;28;20244;-37
2023/08/02 05:33:56;;;;;;;3.30;2.83;;;;;;;16.18;61.25;98413.63;10312270;28;20250;-36
2023/08/02 05:38:58;;;;;;;3.53;2.83;;;;;;;16.09;61.35;98425.94;10309743;28;20232;-37
2023/08/02 05:44:00;;;;;;;3.60;3.13;;;;;;;17.02;59.58;98360.03;10311346;28;20335;-37
2023/08/02 05:49:05;;;;;;;3.20;2.70;;;;;;;16.36;60.08;98441.34;10309419;28;20250;-37
2023/08/02 05:54:07;;;;;;;3.00;2.80;;;;;;;17.61;57.68;98410.34;10311505;28;20242;-37
2023/08/02 05:59:09;;;;;;;3.13;2.80;;;;;;;17.20;58.93;98402.03;10311603;28;20242;-37
2023/08/02 06:04:11;;;;;;;4.87;3.37;;;;;;;17.40;58.22;98416.75;10337068;22;20244;-40
2023/08/02 06:09:13;;;;;;;4.63;3.40;;;;;;;17.09;59.31;98401.19;10351438;28;20328;-39
2023/08/02 06:14:15;;;;;;;3.40;3.10;;;;;;;16.55;59.71;98463.41;10355507;28;20611;-39
2023/08/02 06:19:17;;;;;;;3.63;2.80;;;;;;;16.92;59.65;98409.44;10359004;28;20205;-39
2023/08/02 06:24:19;;;;;;;3.90;3.13;;;;;;;17.73;57.97;98373.09;10340080;28;20233;-39
2023/08/02 06:29:21;;;;;;;3.57;2.90;;;;;;;16.80;60.38;98411.47;10352750;28;20233;-39
2023/08/02 06:34:23;;;;;;;2.90;2.63;;;;;;;16.88;60.29;98378.59;10358202;28;20240;-39
2023/08/02 06:39:24;;;;;;;4.83;3.00;;;;;;;17.23;59.93;98352.06;10355980;28;20232;-39
2023/08/02 06:44:26;;;;;;;4.07;3.20;;;;;;;17.13;60.43;98363.63;10355587;28;20229;-39
2023/08/02 06:49:28;;;;;;;5.07;2.77;;;;;;;16.80;60.55;98433.94;10353918;28;20275;-39
2023/08/02 06:54:30;;;;;;;3.23;2.93;;;;;;;18.18;58.11;98361.81;10351692;28;20229;-38
2023/08/02 06:59:32;;;;;;;3.73;2.80;;;;;;;17.53;60.59;98327.03;10352797;28;20213;-38
2023/08/02 07:04:34;;;;;;;3.53;2.97;;;;;;;16.67;61.87;98428.13;10348823;28;20245;-38
2023/08/02 07:09:36;;;;;;;4.00;3.37;;;;;;;17.24;60.16;98430.19;10351820;28;20260;-38
2023/08/02 07:14:38;;;;;;;3.57;3.07;;;;;;;16.67;62.28;98383.03;10341330;28;20232;-38
2023/08/02 07:19:40;;;;;;;4.67;2.80;;;;;;;16.50;62.06;98404.78;10354802;28;20236;-38
2023/08/02 07:24:42;;;;;;;3.40;3.10;;;;;;;16.59;62.63;98361.91;10359005;28;20260;-38
2023/08/02 07:29:49;;;;;;;5.07;3.17;;;;;;;16.51;63.25;98317.28;10360454;28;20493;-38
2023/08/02 07:34:50;;;;;;;5.90;3.70;;;;;;;17.45;60.96;98282.38;10357889;28;20229;-38
2023/08/02 07:39:52;;;;;;;3.90;3.20;;;;;;;16.65;62.11;98368.16;10359618;28;20295;-38
2023/08/02 07:45:08;;;;;;;5.80;3.27;;;;;;;16.93;62.51;98307.56;10354620;28;20240;-38
2023/08/02 07:50:10;;;;;;;3.83;3.13;;;;;;;17.43;61.52;98235.88;10356477;28;20235;-38
2023/08/02 07:55:12;;;;;;;4.47;3.37;;;;;;;16.81;62.65;98262.66;10358655;28;20273;-38
2023/08/02 08:00:14;;;;;;;4.27;2.63;;;;;;;16.66;62.88;98297.69;10360698;28;20730;-38
2023/08/02 08:05:16;;;;;;;3.87;3.10;;;;;;;16.33;63.59;98350.09;10360143;28;20237;-38
2023/08/02 08:10:18;;;;;;;3.67;3.17;;;;;;;17.20;62.26;98245.28;10357868;28;20332;-39
2023/08/02 08:15:20;;;;;;;4.40;3.27;;;;;;;16.39;63.46;98333.69;10348803;28;20620;-38
2023/08/02 08:20:22;;;;;;;5.40;3.60;;;;;;;17.43;61.46;98254.81;10356866;28;20750;-38
2023/08/02 08:25:24;;;;;;;4.83;3.73;;;;;;;17.03;62.36;98317.66;10357210;28;20230;-38
2023/08/02 08:30:26;;;;;;;4.70;3.53;;;;;;;17.39;61.92;98258.31;10357219;28;20225;-39
2023/08/02 08:35:28;;;;;;;3.50;3.10;;;;;;;16.82;63.59;98255.38;10358805;28;20233;-38
2023/08/02 08:40:32;;;;;;;6.23;3.97;;;;;;;17.36;62.12;98246.16;10357968;28;20276;-38
2023/08/02 08:45:35;;;;;;;4.97;3.60;;;;;;;18.03;61.81;98171.25;10353830;28;20607;-38
2023/08/02 08:50:39;;;;;;;6.20;3.90;;;;;;;17.62;61.85;98240.78;10357480;28;20311;-38
2023/08/02 08:55:41;;;;;;;5.67;3.83;;;;;;;17.45;62.27;98258.06;10354357;28;20320;-38
2023/08/02 09:00:44;;;;;;;4.23;3.17;;;;;;;16.49;64.25;98284.34;10352650;28;20779;-37
2023/08/02 09:05:46;;;;;;;4.67;4.00;;;;;;;16.93;63.43;98243.53;10355273;28;20646;-38
2023/08/02 09:10:48;;;;;;;7.80;3.43;;;;;;;16.52;64.72;98259.53;10356325;28;20229;-38
2023/08/02 09:16:05;;;;;;;4.50;3.60;;;;;;;17.69;62.35;98190.75;10356049;28;20685;-39
2023/08/02 09:21:09;;;;;;;3.97;3.53;;;;;;;16.61;63.95;98282.25;10354768;28;20235;-38
2023/08/02 09:26:18;;;;;;;8.07;3.67;;;;;;;16.70;64.39;98257.47;10352589;28;20237;-38
2023/08/02 09:31:19;;;;;;;4.70;4.10;;;;;;;18.02;61.75;98198.63;10355155;28;20259;-38
2023/08/02 09:36:23;;;;;;;5.37;3.47;;;;;;;16.76;65.51;98200.50;10358133;28;20613;-38
2023/08/02 09:41:25;;;;;;;7.03;3.47;;;;;;;17.27;64.52;98180.16;10353271;28;20230;-39
2023/08/02 09:46:35;;;;;;;5.87;3.70;;;;;;;16.69;65.77;98228.84;10356689;28;20225;-38
2023/08/02 09:51:40;;;;;;;3.93;3.23;;;;;;;16.24;65.72;98288.44;10362228;28;20239;-39
2023/08/02 09:56:43;;;;;;;4.73;3.93;;;;;;;16.76;65.66;98205.09;10351604;28;20229;-39
2023/08/02 10:01:48;;;;;;;7.47;3.80;;;;;;;17.28;63.89;98217.72;10353491;28;20229;-38
2023/08/02 10:07:02;;;;;;;6.10;3.87;;;;;;;17.19;64.47;98205.81;10350591;28;20241;-38
2023/08/02 10:12:09;;;;;;;5.77;3.83;;;;;;;17.25;64.32;98201.25;10352894;28;20952;-38
2023/08/02 10:17:12;;;;;;;6.27;3.83;;;;;;;16.85;65.01;98238.63;10355269;28;20244;-38
2023/08/02 10:22:15;;;;;;;4.43;3.90;;;;;;;17.25;64.17;98217.47;10352902;28;20682;-38
2023/08/02 10:27:18;;;;;;;5.30;3.87;;;;;;;17.42;64.46;98176.66;10352004;28;20233;-38
2023/08/02 10:32:21;;;;;;;4.93;3.90;;;;;;;17.37;63.84;98231.53;10351756;28;20233;-38
2023/08/02 10:37:51;;;;;;;7.33;3.90;;;;;;;18.18;61.73;98196.69;10351858;28;20279;-38
2023/08/02 10:43:07;;;;;;;4.37;3.70;;;;;;;17.75;62.52;98255.69;10349682;28;20228;-36
2023/08/02 10:48:25;;;;;;;4.90;3.70;;;;;;;18.74;60.11;98201.97;10350423;28;20331;-38
2023/08/02 10:53:27;;;;;;;5.73;4.30;;;;;;;19.44;59.52;98148.75;10348741;28;20718;-38
2023/08/02 10:58:49;;;;;;;5.37;3.70;;;;;;;18.87;60.62;98164.53;10333178;28;20316;-39
2023/08/02 11:06:27;;;;;;;5.10;4.00;;;;;;;18.83;60.61;98196.78;10371823;28;20875;-69
2023/08/02 11:11:32;;;;;;;5.43;4.10;;;;;;;19.49;59.96;98151.41;10358409;28;20236;-70
2023/08/02 11:16:41;;;;;;;4.80;4.00;;;;;;;19.36;60.11;98178.06;10368244;28;20750;-69
2023/08/02 11:21:56;;;;;;;5.73;4.03;;;;;;;19.04;60.18;98189.38;10360812;28;22535;-69
2023/08/02 11:26:59;;;;;;;4.53;3.90;;;;;;;19.36;59.46;98180.78;10362627;28;20732;-69
2023/08/02 11:32:04;;;;;;;4.87;4.10;;;;;;;19.95;58.98;98132.84;10357489;28;20735;-70
2023/08/02 11:37:08;;;;;;;5.80;4.40;;;;;;;19.95;59.13;98138.25;10353499;28;20240;-68
2023/08/02 11:42:10;;;;;;;7.10;4.30;;;;;;;19.30;60.17;98197.38;10356681;28;20325;-67
2023/08/02 11:47:12;;;;;;;7.22;4.30;;;;;;;20.36;58.12;98126.16;10357469;28;20225;-69
2023/08/02 11:52:30;;;;;;;5.37;4.13;;;;;;;20.34;58.21;98141.97;10352244;28;20237;-68
2023/08/02 11:57:32;;;;;;;6.07;4.38;;;;;;;21.20;56.91;98098.41;10354428;28;20370;-68
2023/08/02 12:02:34;;;;;;;7.05;4.47;;;;;;;21.93;55.17;98071.63;10355488;28;20241;-68
2023/08/02 12:07:36;;;;;;;4.97;4.43;;;;;;;22.10;54.87;98062.03;10363042;28;22033;-68
2023/08/02 12:12:38;;;;;;;5.30;4.68;;;;;;;22.38;54.01;98081.91;10352143;28;20341;-69
2023/08/02 12:17:40;;;;;;;6.17;4.50;;;;;;;21.87;55.77;98088.34;10336075;28;20238;-69
2023/08/02 12:22:49;;;;;;;6.10;4.40;;;;;;;22.74;54.11;98067.56;10335048;28;20233;-70
2023/08/02 12:28:07;;;;;;;5.22;4.25;;;;;;;21.97;54.93;98097.16;10327652;28;20732;-70
2023/08/02 12:33:09;;;;;;;8.25;4.35;;;;;;;21.45;56.85;98101.06;10324058;28;20233;-69
2023/08/02 12:38:11;;;;;;;5.05;4.18;;;;;;;21.70;56.04;98086.22;10324789;28;20238;-70
2023/08/02 12:43:12;;;;;;;6.38;4.18;;;;;;;20.86;57.99;98066.03;10329035;28;20908;-70
2023/08/02 12:48:14;;;;;;;5.05;4.18;;;;;;;20.90;57.46;98060.81;10324594;28;20308;-69
2023/08/02 12:53:16;;;;;;;5.75;4.40;;;;;;;21.17;58.08;98006.56;10327871;28;20233;-69
2023/08/02 12:58:18;;;;;;;6.00;4.03;;;;;;;21.21;57.72;97985.00;10325410;28;20303;-69
2023/08/02 13:03:20;;;;;;;7.68;4.03;;;;;;;21.70;56.76;97980.06;10329184;28;20249;-75
2023/08/02 13:08:22;;;;;;;5.75;3.95;;;;;;;21.71;56.62;97995.25;10322541;28;20233;-70
2023/08/02 13:13:23;;;;;;;5.57;4.00;;;;;;;22.35;55.61;97968.09;10332169;28;20729;-71
2023/08/02 13:18:25;;;;;;;5.65;3.55;;;;;;;21.99;56.78;97981.69;10327334;28;20229;-70
2023/08/02 13:23:31;;;;;;;8.90;4.10;;;;;;;22.50;55.85;97956.88;10327672;28;20237;-69
2023/08/02 13:28:32;;;;;;;5.93;3.80;;;;;;;22.26;55.73;97975.38;10326693;28;20233;-69
2023/08/02 13:33:34;;;;;;;4.63;3.70;;;;;;;22.62;55.10;97950.06;10328497;28;20249;-71
2023/08/02 13:38:36;;;;;;;4.65;3.88;;;;;;;22.86;54.61;97927.94;10329687;28;20876;-71
2023/08/02 13:43:38;;;;;;;5.50;3.78;;;;;;;22.54;55.34;97946.16;10328839;28;20245;-71
2023/08/02 13:48:40;;;;;;;4.47;3.50;;;;;;;23.45;53.66;97908.69;10328519;28;20262;-71
2023/08/02 13:53:41;;;;;;;4.18;3.40;;;;;;;23.28;54.34;97920.34;10328904;28;20240;-70
2023/08/02 13:58:43;;;;;;;7.55;3.40;;;;;;;23.44;53.05;97923.44;10329575;28;20325;-68
2023/08/02 14:03:45;;;;;;;6.25;3.90;;;;;;;23.77;53.19;97891.13;10336378;23;20238;-40
2023/08/02 14:08:46;;;;;;;5.25;3.90;;;;;;;22.73;55.42;97909.75;10275566;28;20233;-39
2023/08/02 14:13:48;;;;;;;4.88;3.50;;;;;;;23.22;54.87;97867.03;10277349;28;20751;-39
2023/08/02 14:18:50;;;;;;;4.22;3.42;;;;;;;24.25;52.07;97859.34;10277087;28;20226;-39
2023/08/02 14:23:52;;;;;;;5.03;3.50;;;;;;;23.74;53.05;97891.75;10275825;28;20226;-38
2023/08/02 14:28:54;;;;;;;4.35;3.78;;;;;;;23.39;54.01;97877.19;10274422;28;20725;-39
2023/08/02 14:33:56;;;;;;;5.40;3.85;;;;;;;24.37;51.37;97848.56;10276869;28;20242;-38
2023/08/02 14:38:57;;;;;;;7.68;3.80;;;;;;;23.92;52.67;97862.56;10275985;28;20372;-39
2023/08/02 14:44:00;;;;;;;4.32;3.42;;;;;;;24.32;52.21;97828.81;10275132;28;20261;-40
2023/08/02 14:49:01;;;;;;;5.53;2.70;;;;;;;23.95;53.50;97799.06;10277978;28;20260;-37
2023/08/02 14:54:03;;;;;;;5.45;3.17;;;;;;;24.04;52.93;97803.72;10274514;28;20289;-36
2023/08/02 14:59:14;;;;;;;6.07;3.78;;;;;;;23.85;54.10;97804.84;10277761;28;20315;-38
2023/08/02 15:04:16;;;;;;;5.43;3.40;;;;;;;23.21;55.18;97795.28;10274704;28;20237;-38
2023/08/02 15:09:18;;;;;;;4.38;3.35;;;;;;;23.78;54.40;97783.50;10272242;28;20249;-38
2023/08/02 15:14:20;;;;;;;4.57;3.47;;;;;;;23.94;54.62;97733.88;10276836;28;20822;-36
2023/08/02 15:19:21;;;;;;;4.22;3.20;;;;;;;24.44;53.26;97736.00;10279797;28;20771;-38
2023/08/02 15:24:23;;;;;;;5.28;3.30;;;;;;;23.92;54.33;97734.19;10275654;28;20241;-39
2023/08/02 15:29:25;;;;;;;3.92;2.92;;;;;;;23.52;54.70;97715.22;10272352;28;20870;-39
2023/08/02 15:34:27;;;;;;;3.67;2.70;;;;;;;24.30;52.99;97687.03;10274310;28;20230;-39
2023/08/02 15:39:29;;;;;;;6.05;2.63;;;;;;;22.54;55.31;97711.78;10274002;28;20234;-38
2023/08/02 15:44:31;;;;;;;3.83;2.70;;;;;;;23.39;53.21;97677.97;10276370;28;20238;-38
2023/08/02 15:49:33;;;;;;;2.15;1.95;;;;;;;22.83;52.63;97686.72;10277250;28;20292;-39
2023/08/02 15:54:35;;;;;;;3.13;2.30;;;;;;;22.38;52.64;97726.91;10284186;28;20257;-38
2023/08/02 15:59:36;;;;;;;3.75;1.50;;;;;;;22.62;51.29;97700.13;10280679;28;20245;-38
2023/08/02 16:04:38;;;;;;;2.75;1.55;;;;;;;22.39;52.63;97794.72;10284130;28;20242;-39
2023/08/02 16:09:40;;;;;;;3.40;1.90;;;;;;;22.31;54.25;97779.91;10278086;28;20250;-39
2023/08/02 16:14:42;;;;;;;3.42;2.20;;;;;;;21.36;56.98;97790.84;10281817;28;20231;-41
2023/08/02 16:19:44;;;;;;;3.92;2.20;;;;;;;21.09;58.57;97765.25;10277609;28;20230;-39
2023/08/02 16:24:45;;;;;;;4.15;1.90;;;;;;;20.52;58.87;97863.28;10278979;28;20258;-40
2023/08/02 16:29:47;;;;;;;2.85;1.50;;;;;;;18.50;61.35;97836.16;10275592;28;20234;-39
2023/08/02 16:34:49;;;;;;;1.40;1.30;;;;;;;19.11;58.58;97853.75;10277679;28;20322;-39
2023/08/02 16:39:51;;;;;;;2.53;2.00;;;;;;;19.15;59.89;97807.91;10276449;28;20633;-39
2023/08/02 16:44:53;;;;;;;1.65;1.55;;;;;;;19.93;58.46;97828.31;10281240;28;20230;-38
2023/08/02 16:49:54;;;;;;;1.60;1.50;;;;;;;20.58;57.52;97824.06;10276475;28;20242;-38
2023/08/02 16:54:57;;;;;;;3.10;1.88;;;;;;;20.54;57.05;97865.72;10276597;28;20892;-39
2023/08/02 16:59:59;;;;;;;1.50;1.40;;;;;;;21.73;55.45;97807.97;10283557;28;20325;-38
2023/08/02 17:05:01;;;;;;;1.90;1.50;;;;;;;22.19;54.37;97830.63;10280717;28;20242;-38
2023/08/02 17:10:04;;;;;;;1.60;1.50;;;;;;;21.63;55.72;97859.88;10273838;28;20316;-38
2023/08/02 17:15:07;;;;;;;1.98;1.60;;;;;;;20.90;56.92;97865.91;10277298;28;20230;-39
2023/08/02 17:20:10;;;;;;;2.00;1.55;;;;;;;20.39;58.73;97912.94;10275720;28;20238;-38
2023/08/02 17:25:11;;;;;;;2.20;1.60;;;;;;;21.37;58.63;97811.47;10276047;28;20712;-38
2023/08/02 17:30:13;;;;;;;2.03;1.45;;;;;;;23.43;53.27;97845.41;10277268;28;20681;-38
2023/08/02 17:35:15;;;;;;;2.05;1.80;;;;;;;23.29;54.36;97869.28;10272900;28;20861;-38
2023/08/02 17:40:17;;;;;;;1.58;1.48;;;;;;;22.48;55.34;97917.38;10276718;28;20313;-38
2023/08/02 17:45:23;;;;;;;1.35;1.30;;;;;;;23.13;55.02;97863.44;10279827;28;20667;-38
2023/08/02 17:50:25;;;;;;;4.47;1.92;;;;;;;22.89;54.10;97884.50;10277086;28;20338;-38
2023/08/02 17:55:27;;;;;;;2.08;1.88;;;;;;;23.07;54.22;97881.88;10275928;28;20242;-38
2023/08/02 18:00:34;;;;;;;2.38;1.80;;;;;;;22.11;57.08;97867.59;10275762;28;20237;-38
2023/08/02 18:05:36;;;;;;;2.47;1.80;;;;;;;21.60;56.99;97910.31;10275424;28;20624;-38
2023/08/02 18:10:40;;;;;;;1.80;1.70;;;;;;;22.77;55.51;97862.44;10270815;28;20238;-38
2023/08/02 18:15:42;;;;;;;2.35;2.05;;;;;;;22.00;56.33;97837.06;10273904;28;20389;-38
2023/08/02 18:20:44;;;;;;;3.95;2.20;;;;;;;21.65;57.36;97839.44;10274301;28;20326;-38
2023/08/02 18:25:46;;;;;;;3.28;2.45;;;;;;;21.42;57.96;97838.56;10273586;28;20234;-38
2023/08/02 18:31:04;;;;;;;2.58;2.08;;;;;;;22.22;55.65;97860.78;10274060;28;20227;-38
2023/08/02 18:36:08;;;;;;;3.28;2.60;;;;;;;21.15;57.29;97959.00;10273944;28;20237;-41
2023/08/02 18:41:18;;;;;;;3.78;1.88;;;;;;;21.83;55.70;97967.53;10269988;28;20238;-38
2023/08/02 18:46:23;;;;;;;2.92;1.38;;;;;;;22.27;54.71;97969.63;10274742;28;20313;-38
2023/08/02 18:51:25;;;;;;;1.80;1.70;;;;;;;22.03;53.84;97978.06;10290484;23;20261;-67
2023/08/02 18:56:26;;;;;;;2.10;1.85;;;;;;;21.02;51.82;98007.63;10307699;28;20327;-67
2023/08/02 19:01:28;;;;;;;2.38;1.60;;;;;;;21.20;50.19;98007.88;10308971;28;20300;-66
2023/08/02 19:06:33;;;;;;;5.55;1.85;;;;;;;21.19;50.38;98058.75;10302035;28;20255;-66
2023/08/02 19:11:35;;;;;;;3.28;1.65;;;;;;;20.49;50.13;98068.41;10299997;28;20246;-68
2023/08/02 19:16:36;;;;;;;9.07;1.98;;;;;;;21.46;49.71;98026.47;10304941;28;20230;-65
2023/08/02 19:21:38;;;;;;;4.22;1.77;;;;;;;21.72;50.10;98032.28;10305634;28;20233;-70
2023/08/02 19:26:44;;;;;;;2.47;1.63;;;;;;;22.30;49.14;98022.69;10313883;28;20230;-68
2023/08/02 19:31:47;;;;;;;3.95;2.13;;;;;;;20.73;50.86;98078.41;10314048;28;20241;-66
2023/08/02 19:36:49;;;;;;;4.38;1.90;;;;;;;21.04;50.56;98010.03;10317264;28;20248;-68
2023/08/02 19:41:51;;;;;;;3.17;1.67;;;;;;;21.04;50.50;98026.38;10313245;28;20261;-66
2023/08/02 19:46:53;;;;;;;4.70;2.08;;;;;;;20.01;50.96;98054.88;10319824;28;20230;-68
2023/08/02 19:51:55;;;;;;;4.53;2.22;;;;;;;20.93;49.09;98061.03;10313336;28;20789;-67
2023/08/02 19:57:00;;;;;;;3.90;1.92;;;;;;;20.62;48.16;98120.44;10313149;28;20620;-65
2023/08/02 20:02:07;;;;;;;4.65;2.25;;;;;;;20.60;49.43;98090.84;10316038;28;20238;-68
2023/08/02 20:07:11;;;;;;;5.72;1.98;;;;;;;20.68;48.13;98120.09;10314321;28;20238;-68
2023/08/02 20:12:12;;;;;;;4.57;1.88;;;;;;;20.18;50.02;98135.91;10320805;28;20306;-68
2023/08/02 20:17:15;;;;;;;3.20;1.95;;;;;;;21.10;48.42;98084.19;10327919;28;20229;-68
2023/08/02 20:22:17;;;;;;;2.95;1.98;;;;;;;20.99;48.38;98099.84;10325783;28;20454;-67
2023/08/02 20:27:18;;;;;;;6.85;2.30;;;;;;;20.42;49.48;98138.59;10323436;28;20732;-64
2023/08/02 20:32:20;;;;;;;4.43;2.20;;;;;;;20.25;50.01;98136.34;10325653;28;20304;-65
2023/08/02 20:37:22;;;;;;;6.47;2.15;;;;;;;20.94;49.35;98092.56;10326953;28;20670;-68
2023/08/02 20:42:24;;;;;;;5.25;2.05;;;;;;;20.01;49.80;98160.75;10324636;28;20816;-68
2023/08/02 20:47:26;;;;;;;3.80;2.28;;;;;;;19.47;50.63;98093.91;10329675;28;20233;-70
2023/08/02 20:52:28;;;;;;;4.72;1.83;;;;;;;19.83;48.91;98115.34;10325516;28;20299;-66
2023/08/02 20:57:29;;;;;;;6.45;2.05;;;;;;;19.91;47.75;98123.66;10324694;28;20558;-69
2023/08/02 21:02:31;;;;;;;4.35;2.25;;;;;;;20.02;47.23;98137.13;10328154;28;20295;-67
2023/08/02 21:07:33;;;;;;;7.05;2.35;;;;;;;21.70;44.96;98106.06;10318263;28;20774;-69
2023/08/02 21:12:35;;;;;;;3.67;1.98;;;;;;;21.20;47.67;98127.53;10319745;28;20297;-68
2023/08/02 21:17:37;;;;;;;4.18;2.00;;;;;;;21.14;49.06;98137.69;10325590;28;20241;-68
2023/08/02 21:22:39;;;;;;;6.43;1.98;;;;;;;20.15;51.24;98155.44;10330478;28;20887;-68
2023/08/02 21:27:41;;;;;;;1.77;1.50;;;;;;;19.76;51.84;98140.09;10318234;28;20253;-66
2023/08/02 21:32:43;;;;;;;4.47;2.15;;;;;;;20.42;49.34;98145.97;10326913;28;20265;-65
2023/08/02 21:37:45;;;;;;;6.20;2.53;;;;;;;20.16;48.73;98148.94;10326246;28;20280;-67
2023/08/02 21:42:47;;;;;;;6.35;1.88;;;;;;;20.12;47.75;98150.59;10321655;28;20240;-68
2023/08/02 21:47:49;;;;;;;3.30;2.28;;;;;;;20.10;48.27;98150.88;10324522;28;20264;-66
2023/08/02 21:52:52;;;;;;;4.70;1.77;;;;;;;20.04;47.48;98181.06;10317961;28;20320;-66
2023/08/02 21:57:54;;;;;;;4.60;2.13;;;;;;;20.45;47.89;98156.25;10296450;28;20263;-68
2023/08/02 22:02:59;;;;;;;4.90;1.95;;;;;;;20.60;47.46;98145.19;10322321;28;20238;-68
2023/08/02 22:08:08;;;;;;;5.45;2.05;;;;;;;20.90;47.33;98129.59;10322737;28;20233;-70
2023/08/02 22:13:16;;;;;;;6.65;2.15;;;;;;;20.82;47.13;98152.00;10320711;28;20771;-70
2023/08/02 22:18:18;;;;;;;5.72;1.85;;;;;;;19.79;47.06;98207.38;10323460;28;20229;-69
2023/08/02 22:23:19;;;;;;;6.07;2.38;;;;;;;20.81;46.08;98137.59;10322680;28;20283;-69
2023/08/02 22:28:21;;;;;;;5.35;2.08;;;;;;;19.36;46.24;98202.47;10320477;28;20612;-69
2023/08/02 22:33:23;;;;;;;7.68;2.28;;;;;;;20.60;44.39;98177.78;10320850;28;20229;-69
2023/08/02 22:38:25;;;;;;;5.10;2.05;;;;;;;20.11;44.60;98195.16;10315838;28;20716;-68
2023/08/02 22:43:46;;;;;;;6.72;3.08;;;;;;;20.55;43.60;98186.00;10315387;28;20249;-69
2023/08/02 22:48:48;;;;;;;5.37;2.30;;;;;;;19.83;44.42;98194.84;10317793;28;20287;-69
2023/08/02 22:53:54;;;;;;;6.78;2.30;;;;;;;19.68;44.42;98203.91;10312884;28;20230;-69
2023/08/02 22:58:58;;;;;;;5.37;2.10;;;;;;;19.36;44.58;98240.44;10314794;28;20230;-69
2023/08/02 23:04:00;;;;;;;7.68;2.67;;;;;;;19.83;44.18;98232.84;10320479;28;20240;-69
2023/08/02 23:09:02;;;;;;;8.18;2.58;;;;;;;19.82;44.59;98182.34;10321108;28;20238;-69
2023/08/02 23:14:04;;;;;;;5.13;2.35;;;;;;;20.53;43.17;98149.34;10318417;28;20772;-69
2023/08/02 23:19:13;;;;;;;7.30;2.33;;;;;;;20.01;44.05;98206.06;10317517;28;20372;-69
2023/08/02 23:24:15;;;;;;;3.80;2.17;;;;;;;20.60;43.08;98185.16;10324547;28;20287;-70
2023/08/02 23:29:17;;;;;;;7.35;2.72;;;;;;;19.72;43.84;98234.81;10315836;28;20284;-70